Time;durP1;ratioP1;P1;durP2;ratioP2;P2;SDS_P1;SDS_P2;PMS_P1;PMS_P2;Temp;Humidity;BMP_temperature;BMP_pressure;BME280_temperature;BME280_humidity;BME280_pressure;Samples;Min_cycle;Max_cycle;Signal;HPM_P1;HPM_P2
2023/07/22 00:00:47;;;;;;;8.48;5.72;;;;;;;12.90;100.00;100553.38;4977195;28;20043;-82
2023/07/22 00:03:13;;;;;;;8.63;5.75;;;;;;;12.86;100.00;100556.09;4974953;28;20049;-81
2023/07/22 00:05:43;;;;;;;8.60;5.93;;;;;;;12.87;100.00;100560.47;4994295;28;20101;-82
2023/07/22 00:08:10;;;;;;;9.82;6.10;;;;;;;12.86;100.00;100549.09;4993811;28;20855;-82
2023/07/22 00:10:36;;;;;;;8.95;6.50;;;;;;;12.85;100.00;100557.88;4995301;28;20038;-82
2023/07/22 00:13:03;;;;;;;10.05;5.45;;;;;;;12.83;100.00;100549.16;4995752;28;20152;-83
2023/07/22 00:15:29;;;;;;;7.22;5.05;;;;;;;12.83;100.00;100557.03;5006215;28;20042;-81
2023/07/22 00:17:56;;;;;;;9.73;6.40;;;;;;;12.82;100.00;100560.56;4993389;28;20038;-81
2023/07/22 00:20:23;;;;;;;9.65;6.63;;;;;;;12.79;100.00;100560.63;4993056;28;20049;-84
2023/07/22 00:22:50;;;;;;;8.93;5.50;;;;;;;12.73;100.00;100558.97;4994157;28;20046;-82
2023/07/22 00:25:17;;;;;;;11.65;6.00;;;;;;;12.68;100.00;100563.44;4993299;28;20042;-82
2023/07/22 00:27:43;;;;;;;8.10;5.43;;;;;;;12.66;100.00;100565.25;4993486;28;20146;-81
2023/07/22 00:30:15;;;;;;;8.80;5.47;;;;;;;12.68;100.00;100563.44;4976624;28;20389;-82
2023/07/22 00:32:43;;;;;;;8.10;5.70;;;;;;;12.67;100.00;100569.63;4988740;28;20049;-82
2023/07/22 00:35:10;;;;;;;6.93;5.60;;;;;;;12.71;100.00;100566.03;4997272;28;20060;-82
2023/07/22 00:37:36;;;;;;;8.05;5.97;;;;;;;12.65;100.00;100562.66;4997105;28;20046;-82
2023/07/22 00:40:06;;;;;;;6.82;5.25;;;;;;;12.63;100.00;100570.53;5012835;28;20045;-82
2023/07/22 00:42:33;;;;;;;8.88;5.65;;;;;;;12.58;100.00;100561.91;5012652;28;20049;-81
2023/07/22 00:44:59;;;;;;;6.55;5.32;;;;;;;12.57;100.00;100563.66;5013032;28;20046;-82
2023/07/22 00:47:28;;;;;;;7.53;5.18;;;;;;;12.53;100.00;100563.75;5012954;28;20069;-82
2023/07/22 00:49:55;;;;;;;6.90;6.22;;;;;;;12.51;100.00;100569.00;5012613;28;20042;-81
2023/07/22 00:52:22;;;;;;;7.38;4.97;;;;;;;12.50;100.00;100563.78;4996832;28;20048;-81
2023/07/22 00:54:49;;;;;;;9.80;5.68;;;;;;;12.53;100.00;100564.59;5012385;28;20205;-81
2023/07/22 00:57:16;;;;;;;9.43;5.45;;;;;;;12.60;100.00;100562.72;5012744;28;20033;-82
2023/07/22 00:59:44;;;;;;;9.27;5.68;;;;;;;12.64;100.00;100558.28;4996511;28;20149;-82
2023/07/22 01:02:10;;;;;;;6.38;4.18;;;;;;;12.67;100.00;100563.47;5008046;28;20038;-81
2023/07/22 01:04:37;;;;;;;7.55;6.18;;;;;;;12.69;100.00;100556.44;4993128;28;20038;-82
2023/07/22 01:07:08;;;;;;;8.23;5.55;;;;;;;12.67;100.00;100559.09;4993275;28;20038;-81
2023/07/22 01:09:37;;;;;;;8.07;5.68;;;;;;;12.63;100.00;100556.56;4977063;28;20398;-82
2023/07/22 01:12:05;;;;;;;6.90;4.82;;;;;;;12.57;100.00;100550.53;4992778;28;20121;-81
2023/07/22 01:14:34;;;;;;;7.25;5.18;;;;;;;12.58;100.00;100544.38;4976735;28;20141;-81
2023/07/22 01:17:04;;;;;;;6.85;4.65;;;;;;;12.57;100.00;100558.41;4996272;28;20046;-82
2023/07/22 01:19:31;;;;;;;6.53;4.70;;;;;;;12.56;100.00;100561.91;5012542;28;20545;-82
2023/07/22 01:22:00;;;;;;;11.10;5.72;;;;;;;12.52;100.00;100551.50;5012188;28;20465;-82
2023/07/22 01:24:28;;;;;;;6.40;4.90;;;;;;;12.48;100.00;100561.19;5014778;28;20100;-81
2023/07/22 01:26:55;;;;;;;8.80;4.88;;;;;;;12.41;100.00;100560.44;5015878;28;20038;-82
2023/07/22 01:29:26;;;;;;;7.20;4.85;;;;;;;12.39;100.00;100558.75;4999781;28;20042;-81
2023/07/22 01:31:55;;;;;;;8.93;5.28;;;;;;;12.33;100.00;100551.84;5016277;28;20045;-81
2023/07/22 01:34:24;;;;;;;7.93;5.35;;;;;;;12.29;100.00;100557.19;5009735;28;20046;-82
2023/07/22 01:36:51;;;;;;;11.65;5.50;;;;;;;12.30;100.00;100556.28;4996310;28;20093;-81
2023/07/22 01:39:19;;;;;;;7.38;4.90;;;;;;;12.26;100.00;100549.38;4987189;28;20469;-83
2023/07/22 01:41:46;;;;;;;10.48;5.05;;;;;;;12.19;100.00;100548.56;4998406;28;20030;-81
2023/07/22 01:44:12;;;;;;;6.03;4.95;;;;;;;12.16;100.00;100544.28;4980153;28;20056;-82
2023/07/22 01:46:39;;;;;;;6.80;4.95;;;;;;;12.13;100.00;100551.34;4995517;28;20038;-80
2023/07/22 01:49:09;;;;;;;7.00;5.00;;;;;;;12.10;100.00;100554.88;4995524;28;20138;-81
2023/07/22 01:51:37;;;;;;;6.20;4.47;;;;;;;12.08;100.00;100551.41;4996055;28;20070;-81
2023/07/22 01:54:04;;;;;;;12.27;5.20;;;;;;;12.05;100.00;100552.31;4995831;28;20070;-81
2023/07/22 01:56:32;;;;;;;7.88;4.82;;;;;;;12.04;100.00;100547.09;4995631;28;20480;-82
2023/07/22 01:58:58;;;;;;;9.18;5.05;;;;;;;12.00;100.00;100548.03;4995876;28;20038;-81
2023/07/22 02:01:25;;;;;;;7.82;4.65;;;;;;;12.00;100.00;100548.91;4995258;28;20409;-81
2023/07/22 02:03:51;;;;;;;6.40;4.50;;;;;;;11.94;100.00;100543.72;4995572;28;20038;-81
2023/07/22 02:06:18;;;;;;;7.03;4.93;;;;;;;11.91;100.00;100538.53;4979546;28;20046;-81
2023/07/22 02:08:45;;;;;;;5.80;4.15;;;;;;;11.88;100.00;100543.84;4995521;28;20045;-81
2023/07/22 02:11:12;;;;;;;8.35;4.50;;;;;;;11.89;100.00;100546.44;4995461;28;20038;-81
2023/07/22 02:13:39;;;;;;;7.50;4.78;;;;;;;11.88;100.00;100544.69;4979230;28;20043;-81
2023/07/22 02:16:06;;;;;;;8.63;5.05;;;;;;;11.84;100.00;100556.13;4995219;28;20113;-81
2023/07/22 02:18:32;;;;;;;9.25;4.65;;;;;;;11.82;100.00;100550.03;4995180;28;20046;-81
2023/07/22 02:20:59;;;;;;;10.38;4.82;;;;;;;11.73;100.00;100558.94;4996419;28;20071;-82
2023/07/22 02:23:29;;;;;;;6.72;4.55;;;;;;;11.71;100.00;100558.06;4995059;28;20122;-82
2023/07/22 02:25:56;;;;;;;9.50;5.28;;;;;;;11.72;100.00;100557.19;4978942;28;20093;-81
2023/07/22 02:28:23;;;;;;;8.20;4.57;;;;;;;11.72;100.00;100559.81;4996283;28;20041;-82
2023/07/22 02:30:52;;;;;;;6.32;4.50;;;;;;;11.72;100.00;100564.16;4995316;28;20383;-82
2023/07/22 02:33:21;;;;;;;7.43;4.60;;;;;;;11.66;100.00;100564.28;4994892;28;20039;-81
2023/07/22 02:35:49;;;;;;;10.10;5.70;;;;;;;11.66;100.00;100565.13;4995225;28;20051;-81
2023/07/22 02:38:15;;;;;;;7.90;4.93;;;;;;;11.64;100.00;100560.81;4994712;28;20034;-82
2023/07/22 02:40:42;;;;;;;7.07;4.03;;;;;;;11.64;100.00;100563.44;4995039;28;20042;-82
2023/07/22 02:43:08;;;;;;;5.90;3.95;;;;;;;11.67;100.00;100564.25;4994850;28;20117;-82
2023/07/22 02:45:35;;;;;;;5.45;4.10;;;;;;;11.73;100.00;100564.16;4994731;28;20046;-81
2023/07/22 02:48:02;;;;;;;8.88;4.07;;;;;;;11.77;100.00;100575.44;4994669;28;20046;-81
2023/07/22 02:50:28;;;;;;;9.48;4.80;;;;;;;11.82;100.00;100571.00;4995849;28;20049;-82
2023/07/22 02:52:55;;;;;;;13.93;4.97;;;;;;;11.87;100.00;100573.56;4995043;28;20045;-82
2023/07/22 02:55:24;;;;;;;8.32;5.50;;;;;;;11.88;100.00;100578.78;4994872;28;20050;-82
2023/07/22 02:57:51;;;;;;;9.07;4.18;;;;;;;11.91;100.00;100570.00;4995165;28;20046;-82
2023/07/22 03:00:23;;;;;;;9.43;5.65;;;;;;;11.92;100.00;100577.00;4996004;28;20089;-81
2023/07/22 03:02:57;;;;;;;6.82;4.78;;;;;;;11.89;100.00;100577.91;4994906;28;20084;-82
2023/07/22 03:05:25;;;;;;;9.55;4.38;;;;;;;11.88;100.00;100581.41;4994650;28;20046;-82
2023/07/22 03:07:53;;;;;;;10.27;4.95;;;;;;;11.86;100.00;100577.97;4994087;28;20052;-80
2023/07/22 03:10:19;;;;;;;8.07;4.85;;;;;;;11.86;100.00;100583.22;4978125;28;20137;-80
2023/07/22 03:12:46;;;;;;;8.32;4.72;;;;;;;11.82;100.00;100583.25;4994565;28;20042;-81
2023/07/22 03:15:12;;;;;;;7.30;5.28;;;;;;;11.80;100.00;100574.53;4994007;28;20053;-81
2023/07/22 03:17:43;;;;;;;8.60;5.63;;;;;;;11.81;100.00;100581.53;4995434;28;20049;-81
2023/07/22 03:20:14;;;;;;;8.98;5.43;;;;;;;11.83;100.00;100585.84;4994228;28;20042;-81
2023/07/22 03:22:44;;;;;;;8.95;4.47;;;;;;;11.87;100.00;100578.81;4978409;28;20058;-81
2023/07/22 03:25:11;;;;;;;15.23;6.30;;;;;;;11.86;100.00;100590.19;4994238;28;20034;-81
2023/07/22 03:27:38;;;;;;;10.57;5.50;;;;;;;11.86;100.00;100588.47;4994562;28;20061;-81
2023/07/22 03:30:07;;;;;;;8.65;5.25;;;;;;;11.87;100.00;100597.19;4979296;28;20377;-82
2023/07/22 03:32:35;;;;;;;6.72;4.50;;;;;;;11.81;100.00;100592.00;4979117;28;20051;-82
2023/07/22 03:35:02;;;;;;;6.10;4.57;;;;;;;11.74;100.00;100593.88;4993626;28;20053;-81
2023/07/22 03:37:29;;;;;;;8.45;5.03;;;;;;;11.67;100.00;100598.34;4993827;28;20038;-81
2023/07/22 03:39:56;;;;;;;6.60;4.40;;;;;;;11.68;100.00;100609.69;4993612;28;20038;-82
2023/07/22 03:42:22;;;;;;;7.30;5.00;;;;;;;11.68;100.00;100604.44;4994671;28;20474;-82
2023/07/22 03:44:49;;;;;;;10.80;5.53;;;;;;;11.65;100.00;100607.13;4992309;28;20046;-82
2023/07/22 03:47:16;;;;;;;8.35;5.45;;;;;;;11.60;100.00;100604.53;4993190;28;20045;-84
2023/07/22 03:49:42;;;;;;;8.90;5.43;;;;;;;11.54;100.00;100604.66;4992822;28;20169;-83
2023/07/22 03:52:09;;;;;;;7.05;5.00;;;;;;;11.55;100.00;100608.97;4977416;28;20046;-82
2023/07/22 03:54:35;;;;;;;6.22;4.78;;;;;;;11.57;100.00;100605.44;4994033;28;20497;-82
2023/07/22 03:57:02;;;;;;;11.15;5.32;;;;;;;11.55;100.00;100607.25;4993459;28;20465;-82
2023/07/22 03:59:29;;;;;;;10.07;6.35;;;;;;;11.57;100.00;100604.59;4976951;28;20042;-82
2023/07/22 04:01:55;;;;;;;8.05;5.78;;;;;;;11.55;100.00;100604.63;4993205;28;20050;-81
2023/07/22 04:04:22;;;;;;;8.10;5.50;;;;;;;11.58;100.00;100599.31;4993344;28;20046;-82
2023/07/22 04:06:49;;;;;;;9.52;5.63;;;;;;;11.62;100.00;100607.16;4977999;28;20038;-82
2023/07/22 04:09:17;;;;;;;10.20;5.25;;;;;;;11.67;100.00;100614.06;4973969;28;20117;-81
2023/07/22 04:11:44;;;;;;;8.25;5.60;;;;;;;11.73;100.00;100607.88;4974088;28;20235;-81
2023/07/22 04:14:12;;;;;;;9.20;5.45;;;;;;;11.78;100.00;100610.44;4966252;28;20046;-82
2023/07/22 04:16:39;;;;;;;9.63;6.13;;;;;;;11.82;100.00;100612.13;4992985;28;20038;-82
2023/07/22 04:22:46;;;;;;;9.02;6.13;;;;;;;11.96;100.00;100612.81;4973508;28;20381;-82
2023/07/22 04:25:13;;;;;;;16.25;5.90;;;;;;;12.03;100.00;100621.44;4973585;28;20046;-81
2023/07/22 04:28:09;;;;;;;7.65;5.97;;;;;;;12.16;100.00;100609.88;4973652;28;20050;-81
2023/07/22 04:30:36;;;;;;;8.40;4.60;;;;;;;12.26;100.00;100612.34;4973507;28;20062;-82
2023/07/22 04:33:05;;;;;;;9.93;6.20;;;;;;;12.35;100.00;100617.44;4973758;28;20070;-81
2023/07/22 04:35:37;;;;;;;8.73;5.70;;;;;;;12.40;100.00;100618.25;4973501;28;20138;-82
2023/07/22 04:38:04;;;;;;;8.43;5.47;;;;;;;12.47;100.00;100619.00;4957804;28;20058;-81
2023/07/22 04:40:31;;;;;;;12.63;6.53;;;;;;;12.48;100.00;100621.59;4973768;28;20046;-82
2023/07/22 04:42:58;;;;;;;7.95;5.38;;;;;;;12.55;100.00;100627.59;4972892;28;20061;-82
2023/07/22 04:45:25;;;;;;;10.38;6.00;;;;;;;12.58;100.00;100630.19;4973342;28;20061;-81
2023/07/22 04:47:56;;;;;;;9.05;5.80;;;;;;;12.62;100.00;100626.59;4973569;28;20533;-82
2023/07/22 04:54:03;;;;;;;9.98;6.22;;;;;;;12.68;100.00;100631.72;4994152;28;20065;-82
2023/07/22 04:56:36;;;;;;;9.40;5.03;;;;;;;12.72;100.00;100630.81;4993049;28;20069;-81
2023/07/22 04:59:03;;;;;;;10.77;5.88;;;;;;;12.78;100.00;100635.06;4978984;28;20053;-82
2023/07/22 05:01:30;;;;;;;8.20;5.15;;;;;;;12.81;100.00;100632.38;4996559;28;20042;-82
2023/07/22 05:03:57;;;;;;;9.20;5.72;;;;;;;12.87;100.00;100631.41;4997139;28;20096;-82
2023/07/22 05:06:24;;;;;;;6.78;5.15;;;;;;;12.91;100.00;100631.31;4996754;28;20101;-82
2023/07/22 05:08:51;;;;;;;9.88;5.40;;;;;;;12.97;100.00;100632.09;4980834;28;20038;-82
2023/07/22 05:11:38;;;;;;;10.82;5.18;;;;;;;13.00;100.00;100630.28;4996723;28;20065;-82
2023/07/22 05:14:06;;;;;;;11.25;6.38;;;;;;;13.02;100.00;100632.88;4980324;28;20038;-82
2023/07/22 05:16:52;;;;;;;11.20;5.78;;;;;;;13.03;100.00;100634.59;4996591;28;20408;-82
2023/07/22 05:19:20;;;;;;;8.27;5.57;;;;;;;13.05;100.00;100641.56;4996096;28;20058;-82
2023/07/22 05:21:47;;;;;;;14.52;6.65;;;;;;;13.07;99.92;100641.53;4996452;28;20096;-81
2023/07/22 05:24:13;;;;;;;9.88;5.05;;;;;;;13.07;100.00;100636.25;4996370;28;20073;-82
2023/07/22 05:26:40;;;;;;;8.73;4.78;;;;;;;13.12;100.00;100642.31;4996237;28;20454;-80
2023/07/22 05:29:07;;;;;;;7.72;6.22;;;;;;;13.16;99.90;100640.50;4996656;28;20038;-81
2023/07/22 05:35:25;;;;;;;8.95;5.85;;;;;;;13.26;99.37;100646.41;4996292;28;20186;-81
2023/07/22 05:37:52;;;;;;;11.23;5.50;;;;;;;13.34;98.92;100649.75;4996068;28;20049;-82
2023/07/22 05:40:18;;;;;;;8.90;5.68;;;;;;;13.39;98.73;100650.56;4980234;28;20042;-82
2023/07/22 05:42:46;;;;;;;7.88;4.95;;;;;;;13.46;98.60;100648.69;4997917;28;20046;-85
2023/07/22 05:45:15;;;;;;;9.82;5.78;;;;;;;13.52;98.33;100644.16;4985088;28;20521;-82
2023/07/22 05:47:41;;;;;;;11.70;5.32;;;;;;;13.56;97.78;100653.69;4996142;28;20106;-82
2023/07/22 05:50:14;;;;;;;11.95;5.68;;;;;;;13.59;97.58;100655.41;4996751;28;20068;-82
2023/07/22 05:52:45;;;;;;;7.38;4.82;;;;;;;13.57;97.51;100658.06;4996286;28;20038;-81
2023/07/22 05:55:11;;;;;;;12.20;6.18;;;;;;;13.60;97.74;100658.88;4996011;28;20030;-82
2023/07/22 05:57:38;;;;;;;8.98;5.07;;;;;;;13.63;97.47;100658.84;4996741;28;20034;-82
2023/07/22 06:00:05;;;;;;;9.50;5.40;;;;;;;13.66;97.73;100654.38;4996085;28;20049;-82
2023/07/22 06:02:33;;;;;;;8.10;5.43;;;;;;;13.72;97.39;100650.75;4995905;28;20053;-81
2023/07/22 06:05:01;;;;;;;10.95;5.70;;;;;;;13.77;96.98;100655.91;4995929;28;20045;-81
2023/07/22 06:07:27;;;;;;;10.35;6.03;;;;;;;13.87;96.50;100657.41;4979934;28;20125;-81
2023/07/22 06:09:54;;;;;;;6.93;4.53;;;;;;;13.99;95.71;100657.16;4978785;28;20044;-81
2023/07/22 06:12:20;;;;;;;7.47;5.40;;;;;;;14.11;95.58;100657.78;4996004;28;20038;-81
2023/07/22 06:14:53;;;;;;;11.63;5.38;;;;;;;14.28;94.10;100652.97;4996319;28;20052;-81
2023/07/22 06:17:20;;;;;;;11.57;6.03;;;;;;;14.35;93.38;100657.19;4979769;28;20046;-82
2023/07/22 06:19:47;;;;;;;7.65;4.68;;;;;;;14.41;93.73;100660.56;4995387;28;20061;-82
2023/07/22 06:22:13;;;;;;;5.50;4.57;;;;;;;14.45;93.32;100664.84;4995828;28;20038;-82
2023/07/22 06:24:40;;;;;;;8.02;5.22;;;;;;;14.48;93.44;100670.03;4995528;28;20046;-81
2023/07/22 06:27:07;;;;;;;9.55;5.47;;;;;;;14.52;93.13;100667.28;4994865;28;20050;-80
2023/07/22 06:29:33;;;;;;;11.35;5.88;;;;;;;14.57;92.75;100659.25;4993838;28;20054;-81
2023/07/22 06:32:01;;;;;;;9.32;5.07;;;;;;;14.70;92.15;100665.13;4991946;28;20053;-81
2023/07/22 06:34:28;;;;;;;7.72;4.95;;;;;;;14.74;92.22;100655.38;4974897;28;20051;-80
2023/07/22 06:37:12;;;;;;;7.47;5.05;;;;;;;14.85;91.41;100659.44;4961332;28;20045;-81
2023/07/22 06:39:38;;;;;;;10.15;5.63;;;;;;;15.00;90.82;100662.56;4975804;28;20039;-82
2023/07/22 06:42:05;;;;;;;10.48;5.85;;;;;;;15.16;88.75;100661.25;4975227;28;20078;-81
2023/07/22 06:44:32;;;;;;;11.30;5.22;;;;;;;15.13;88.25;100663.97;4976336;28;20042;-82
2023/07/22 06:46:59;;;;;;;9.32;5.43;;;;;;;15.16;87.89;100663.00;4972566;28;20090;-80
2023/07/22 06:49:26;;;;;;;10.80;5.75;;;;;;;15.21;87.62;100669.03;4975133;28;20042;-81
2023/07/22 06:51:52;;;;;;;9.48;5.43;;;;;;;15.34;87.14;100667.78;4943569;28;20054;-81
2023/07/22 06:54:19;;;;;;;10.00;5.72;;;;;;;15.44;86.97;100664.88;4959211;28;20047;-81
2023/07/22 06:56:51;;;;;;;10.43;5.25;;;;;;;15.64;86.34;100672.19;4975067;28;20121;-81
2023/07/22 06:59:47;;;;;;;8.45;5.75;;;;;;;15.73;85.60;100666.63;4975431;28;20061;-82
2023/07/22 07:06:17;;;;;;;12.57;5.75;;;;;;;15.78;85.15;100669.16;4976552;28;20093;-81
2023/07/22 07:12:46;;;;;;;9.75;4.85;;;;;;;16.01;84.01;100671.13;4976461;28;20038;-82
2023/07/22 07:15:13;;;;;;;10.73;6.32;;;;;;;16.24;83.02;100674.81;4974825;28;20061;-82
2023/07/22 07:18:00;;;;;;;7.40;5.72;;;;;;;16.50;82.01;100672.19;4975130;28;20053;-82
2023/07/22 07:20:27;;;;;;;9.45;5.00;;;;;;;16.55;81.30;100661.44;4974464;28;20458;-82
2023/07/22 07:23:16;;;;;;;11.55;5.43;;;;;;;16.64;80.93;100668.19;4974937;28;20393;-82
2023/07/22 07:25:46;;;;;;;6.97;4.95;;;;;;;16.72;80.03;100666.16;4974585;28;20474;-82
2023/07/22 07:28:37;;;;;;;7.38;5.68;;;;;;;16.91;78.39;100666.41;4976672;28;20057;-81
2023/07/22 07:31:03;;;;;;;10.48;6.07;;;;;;;16.81;78.98;100675.56;4958633;28;20401;-81
2023/07/22 07:33:49;;;;;;;8.43;5.22;;;;;;;16.80;79.91;100671.16;4961340;28;20109;-81
2023/07/22 07:36:16;;;;;;;5.35;4.78;;;;;;;17.28;79.55;100677.47;4942996;28;20101;-82
2023/07/22 07:39:02;;;;;;;9.68;5.65;;;;;;;17.97;75.31;100680.16;4961600;28;20449;-81
2023/07/22 07:41:30;;;;;;;7.78;5.80;;;;;;;18.08;74.00;100674.44;4975236;28;20050;-81
2023/07/22 07:43:56;;;;;;;8.18;5.53;;;;;;;17.98;73.69;100673.09;4949206;28;20128;-81
2023/07/22 07:46:30;;;;;;;6.15;4.97;;;;;;;17.79;74.20;100679.03;4977448;28;20117;-82
2023/07/22 07:49:00;;;;;;;10.98;6.75;;;;;;;17.75;74.95;100676.59;4961858;28;20035;-82
2023/07/22 07:51:29;;;;;;;9.63;5.53;;;;;;;17.93;74.27;100677.69;4974751;28;20123;-81
2023/07/22 07:54:15;;;;;;;9.50;5.88;;;;;;;17.79;74.23;100676.41;4958087;28;20053;-82
2023/07/22 07:56:44;;;;;;;6.68;5.03;;;;;;;17.72;75.16;100674.94;4971853;28;20038;-82
2023/07/22 07:59:25;;;;;;;6.50;5.03;;;;;;;18.19;73.70;100681.94;4979240;28;20053;-82
2023/07/22 08:02:11;;;;;;;6.97;5.43;;;;;;;18.57;70.10;100683.97;4979439;28;20509;-81
2023/07/22 08:04:38;;;;;;;4.95;4.43;;;;;;;18.22;71.74;100688.91;4994613;28;20049;-81
2023/07/22 08:07:07;;;;;;;6.57;5.18;;;;;;;18.08;72.21;100684.16;4977022;28;20066;-81
2023/07/22 08:09:34;;;;;;;8.77;5.65;;;;;;;17.86;72.78;100685.00;4977299;28;20042;-80
2023/07/22 08:12:03;;;;;;;10.45;5.50;;;;;;;17.47;74.18;100683.78;4977611;28;20125;-80
2023/07/22 08:14:30;;;;;;;5.93;4.43;;;;;;;17.36;75.18;100692.13;4961682;28;20053;-81
2023/07/22 08:16:56;;;;;;;7.68;5.57;;;;;;;17.51;74.72;100695.97;4977101;28;20513;-81
2023/07/22 08:19:23;;;;;;;7.03;5.40;;;;;;;17.76;73.94;100684.47;4974948;28;20034;-81
2023/07/22 08:21:49;;;;;;;8.27;5.43;;;;;;;17.88;72.47;100685.78;4975451;28;20156;-81
2023/07/22 08:24:16;;;;;;;8.98;6.00;;;;;;;18.11;71.71;100682.25;4991483;28;20056;-81
2023/07/22 08:26:42;;;;;;;8.30;5.50;;;;;;;18.47;69.48;100678.16;4973781;28;20045;-82
2023/07/22 08:29:09;;;;;;;7.40;5.10;;;;;;;18.59;69.17;100684.75;4996605;28;20042;-82
2023/07/22 08:31:36;;;;;;;7.93;5.03;;;;;;;18.65;69.10;100679.19;4996825;28;20116;-82
2023/07/22 08:34:02;;;;;;;6.00;4.53;;;;;;;18.78;68.84;100684.84;4997885;28;20034;-82
2023/07/22 08:36:49;;;;;;;8.68;5.60;;;;;;;19.15;66.37;100681.47;5015239;28;20488;-82
2023/07/22 08:39:16;;;;;;;6.97;4.75;;;;;;;19.23;65.38;100693.53;5016367;28;20045;-82
2023/07/22 08:42:06;;;;;;;9.43;5.65;;;;;;;19.45;64.26;100683.69;5034440;28;20037;-82
2023/07/22 08:44:44;;;;;;;6.90;4.40;;;;;;;19.53;65.05;100693.06;4981760;28;20087;-81
2023/07/22 08:47:21;;;;;;;8.57;4.93;;;;;;;19.37;65.13;100700.88;4980894;28;20069;-81
2023/07/22 08:50:07;;;;;;;8.10;6.70;;;;;;;19.20;65.40;100697.19;5013496;28;20148;-81
2023/07/22 08:52:37;;;;;;;10.45;6.68;;;;;;;19.08;66.40;100693.28;5000188;28;20042;-81
2023/07/22 08:55:31;;;;;;;7.22;6.53;;;;;;;19.86;64.66;100696.00;4979462;28;20057;-81
2023/07/22 08:57:58;;;;;;;9.77;6.97;;;;;;;21.05;60.66;100687.47;4960811;28;20054;-81
2023/07/22 09:00:25;;;;;;;9.32;7.28;;;;;;;20.59;60.73;100684.50;4976742;28;20045;-81
2023/07/22 09:02:53;;;;;;;9.02;7.05;;;;;;;19.77;63.34;100685.78;5010168;28;20056;-81
2023/07/22 09:05:19;;;;;;;7.10;6.35;;;;;;;19.37;64.14;100683.16;4996230;28;20100;-80
2023/07/22 09:07:49;;;;;;;11.45;6.32;;;;;;;19.31;65.04;100692.25;4996446;28;20065;-82
2023/07/22 09:10:16;;;;;;;8.38;6.55;;;;;;;19.70;63.97;100685.19;4979972;28;20038;-82
2023/07/22 09:12:43;;;;;;;11.75;7.32;;;;;;;20.11;61.74;100681.53;4980269;28;20137;-81
2023/07/22 09:15:13;;;;;;;7.68;6.72;;;;;;;20.12;60.72;100677.94;5009857;28;20119;-81
2023/07/22 09:17:43;;;;;;;9.80;6.45;;;;;;;19.95;60.44;100679.63;5015777;28;20048;-82
2023/07/22 09:20:14;;;;;;;7.85;6.45;;;;;;;19.76;60.50;100679.59;5033455;28;20091;-81
2023/07/22 09:22:52;;;;;;;7.03;6.32;;;;;;;19.95;59.10;100674.31;4982770;28;20132;-80
2023/07/22 09:25:29;;;;;;;9.50;6.57;;;;;;;19.96;58.51;100677.84;4996435;28;20385;-81
2023/07/22 09:31:51;;;;;;;7.28;5.75;;;;;;;20.48;56.48;100669.06;5013457;28;20038;-81
2023/07/22 09:34:17;;;;;;;7.18;6.35;;;;;;;20.58;56.39;100680.13;4980872;28;20054;-81
2023/07/22 09:36:55;;;;;;;11.93;7.28;;;;;;;21.11;55.12;100665.03;4992619;28;20107;-81
2023/07/22 09:39:47;;;;;;;9.75;6.53;;;;;;;20.94;52.47;100664.09;4992447;28;20176;-81
2023/07/22 09:42:25;;;;;;;9.10;6.13;;;;;;;20.80;54.48;100654.16;4996267;28;20065;-81
2023/07/22 09:44:55;;;;;;;9.13;6.32;;;;;;;21.46;53.52;100665.78;4997484;28;20034;-81
2023/07/22 09:47:22;;;;;;;8.10;6.55;;;;;;;21.95;50.88;100656.91;4998955;28;20494;-81
2023/07/22 09:49:51;;;;;;;7.43;6.07;;;;;;;22.14;50.13;100664.69;4983007;28;20037;-81
2023/07/22 09:52:18;;;;;;;8.63;5.78;;;;;;;22.61;47.47;100656.72;5017337;28;20046;-81
2023/07/22 09:54:50;;;;;;;5.93;5.10;;;;;;;22.70;46.74;100661.50;4999430;28;20043;-81
2023/07/22 10:01:01;;;;;;;6.15;5.53;;;;;;;23.30;45.54;100657.03;5016871;28;20065;-82
2023/07/22 10:03:30;;;;;;;4.80;4.38;;;;;;;22.41;46.93;100657.88;4999884;28;20042;-81
2023/07/22 10:06:34;;;;;;;5.93;4.65;;;;;;;22.22;47.93;100658.94;4985312;28;20049;-83
2023/07/22 10:09:07;;;;;;;5.30;4.80;;;;;;;22.43;47.71;100653.31;4985320;28;20038;-81
2023/07/22 10:11:36;;;;;;;5.13;4.72;;;;;;;22.40;48.12;100653.53;5000195;28;20551;-81
2023/07/22 10:14:04;;;;;;;5.32;4.85;;;;;;;23.12;46.79;100659.00;5013291;28;20069;-80
2023/07/22 10:16:31;;;;;;;6.63;3.80;;;;;;;23.93;42.90;100642.31;5001936;28;20037;-82
2023/07/22 10:18:59;;;;;;;4.28;3.97;;;;;;;23.08;44.22;100649.47;5001660;28;20492;-81
2023/07/22 10:21:26;;;;;;;4.50;3.90;;;;;;;22.17;45.77;100647.66;5000751;28;20393;-81
2023/07/22 10:23:53;;;;;;;4.40;2.90;;;;;;;21.65;46.33;100651.47;4991454;28;20353;-82
2023/07/22 10:26:20;;;;;;;3.45;3.13;;;;;;;21.42;46.81;100650.91;5021243;28;20045;-81
2023/07/22 10:29:09;;;;;;;4.13;3.30;;;;;;;21.46;47.54;100636.50;5006596;28;20048;-81
2023/07/22 10:32:15;;;;;;;3.80;3.50;;;;;;;21.23;48.40;100647.53;5002761;28;20041;-81
2023/07/22 10:34:42;;;;;;;3.50;3.20;;;;;;;20.96;49.07;100645.38;4985407;28;20111;-81
2023/07/22 10:37:11;;;;;;;4.82;3.65;;;;;;;20.57;50.25;100644.69;5001675;28;20062;-81
2023/07/22 10:39:38;;;;;;;4.20;3.08;;;;;;;20.25;50.93;100646.31;5017458;28;20102;-81
2023/07/22 10:42:07;;;;;;;3.85;3.47;;;;;;;19.93;53.30;100649.63;4976275;28;20066;-81
2023/07/22 10:44:37;;;;;;;4.18;3.78;;;;;;;19.91;55.85;100648.81;4997730;28;20068;-82
2023/07/22 10:47:04;;;;;;;3.53;3.22;;;;;;;20.15;55.09;100648.56;5000276;28;20049;-82
2023/07/22 10:49:45;;;;;;;4.30;3.90;;;;;;;20.57;53.71;100651.81;5015954;28;20038;-81
2023/07/22 10:52:16;;;;;;;6.82;3.38;;;;;;;22.66;48.57;100648.44;5017070;28;20042;-82
2023/07/22 10:54:43;;;;;;;6.45;3.72;;;;;;;24.55;43.76;100635.56;5001977;28;20064;-82
2023/07/22 10:57:17;;;;;;;3.55;3.25;;;;;;;25.24;41.31;100642.47;4985089;28;20049;-82
2023/07/22 10:59:53;;;;;;;3.22;3.00;;;;;;;25.95;39.57;100632.00;5001309;28;20042;-81
2023/07/22 11:02:41;;;;;;;4.72;3.60;;;;;;;26.23;39.00;100628.16;5003328;28;20104;-81
2023/07/22 11:05:17;;;;;;;4.40;3.60;;;;;;;25.60;39.08;100616.69;4983458;28;20041;-81
2023/07/22 11:07:51;;;;;;;3.22;2.97;;;;;;;24.23;41.55;100629.72;4996704;28;20394;-82
2023/07/22 11:14:26;;;;;;;4.80;3.80;;;;;;;21.67;47.21;100638.06;4998566;28;20053;-83
2023/07/22 11:16:54;;;;;;;4.25;3.08;;;;;;;21.51;46.95;100620.28;4995784;28;20050;-82
2023/07/22 11:19:40;;;;;;;4.25;2.85;;;;;;;21.46;47.36;100630.31;4982855;28;20049;-81
2023/07/22 11:22:08;;;;;;;4.38;3.17;;;;;;;21.33;48.07;100627.47;4997777;28;20049;-81
2023/07/22 11:24:36;;;;;;;3.00;2.70;;;;;;;21.08;48.29;100627.91;4980834;28;20050;-82
2023/07/22 11:27:09;;;;;;;3.55;3.10;;;;;;;20.82;48.95;100619.53;4997207;28;20487;-81
2023/07/22 11:29:38;;;;;;;6.10;2.85;;;;;;;20.49;49.67;100626.47;4980610;28;20065;-81
2023/07/22 11:32:05;;;;;;;3.47;3.08;;;;;;;20.22;50.59;100620.75;4965490;28;20073;-82
2023/07/22 11:34:31;;;;;;;3.95;3.17;;;;;;;19.99;51.62;100619.22;4991968;28;20100;-81
2023/07/22 11:36:59;;;;;;;4.35;3.53;;;;;;;19.88;52.57;100618.88;4998952;28;20038;-81
2023/07/22 11:39:31;;;;;;;4.28;3.58;;;;;;;19.96;52.57;100620.22;5000926;28;20092;-80
2023/07/22 11:42:04;;;;;;;4.68;4.05;;;;;;;20.22;52.49;100620.75;5000824;28;20038;-80
2023/07/22 11:44:31;;;;;;;;;;;;;;;20.48;52.09;100616.78;5000306;28;20084;-81
2023/07/22 11:47:03;;;;;;;7.38;4.22;;;;;;;20.55;51.28;100617.31;4999721;28;19928;-81
2023/07/22 11:49:36;;;;;;;4.45;3.92;;;;;;;20.43;50.68;100602.00;5000751;28;20042;-81
2023/07/22 11:52:17;;;;;;;5.05;3.90;;;;;;;20.17;51.14;100620.97;5000436;28;20044;-80
2023/07/22 11:54:45;;;;;;;7.50;4.22;;;;;;;19.91;51.72;100613.44;4999163;28;20076;-81
2023/07/22 11:57:21;;;;;;;6.35;4.22;;;;;;;19.72;52.93;100610.75;4996709;28;20042;-80
2023/07/22 11:59:53;;;;;;;4.53;3.90;;;;;;;19.55;54.04;100609.75;4963765;28;20054;-83
2023/07/22 12:02:28;;;;;;;6.13;4.00;;;;;;;19.63;54.33;100609.41;4980650;28;20042;-81